createdAt,value
2022-09-23T00:01:26.045Z,7.34
2022-09-23T00:03:54.083Z,7.81
2022-09-23T00:06:23.466Z,8.54
2022-09-23T00:08:52.061Z,8.52
2022-09-23T00:11:22.833Z,8.44
2022-09-23T00:13:52.704Z,7.64
2022-09-23T00:16:24.300Z,8.26
2022-09-23T00:18:52.002Z,7.73
2022-09-23T00:21:21.184Z,7.46
2022-09-23T00:23:49.554Z,7.09
2022-09-23T00:26:19.116Z,7.38
2022-09-23T00:28:47.974Z,7.81
2022-09-23T00:31:18.140Z,7.12
2022-09-23T00:33:45.963Z,7.40
2022-09-23T00:36:15.851Z,7.59
2022-09-23T00:38:44.396Z,7.72
2022-09-23T00:41:18.342Z,7.69
2022-09-23T00:43:50.493Z,7.37
2022-09-23T00:46:29.310Z,7.19
2022-09-23T00:49:13.046Z,6.34
2022-09-23T00:51:45.134Z,6.17
2022-09-23T00:54:13.223Z,7.21
2022-09-23T00:56:41.035Z,7.34
2022-09-23T00:59:10.024Z,7.01
2022-09-23T01:01:38.675Z,7.44
2022-09-23T01:04:07.844Z,7.36
2022-09-23T01:06:35.963Z,7.27
2022-09-23T01:09:03.992Z,7.35
2022-09-23T01:11:37.442Z,7.13
2022-09-23T01:14:42.046Z,7.21
2022-09-23T01:17:15.875Z,7.30
2022-09-23T01:20:15.319Z,7.05
2022-09-23T01:23:12.361Z,7.35
2022-09-23T01:26:04.933Z,6.98
2022-09-23T01:29:07.103Z,7.44
2022-09-23T01:31:45.086Z,7.30
2022-09-23T01:34:51.042Z,7.29
2022-09-23T01:37:28.747Z,7.21
2022-09-23T01:40:02.817Z,7.36
2022-09-23T01:42:39.703Z,7.28
2022-09-23T01:45:12.898Z,6.73
2022-09-23T01:47:45.264Z,6.77
2022-09-23T01:50:38.409Z,6.97
2022-09-23T01:53:11.942Z,6.49
2022-09-23T01:55:47.904Z,7.08
2022-09-23T01:58:24.613Z,6.58
2022-09-23T02:01:00.454Z,7.14
2022-09-23T02:03:35.517Z,6.84
2022-09-23T02:06:12.783Z,6.97
2022-09-23T02:09:06.335Z,7.01
2022-09-23T02:11:36.496Z,6.91
2022-09-23T02:14:23.576Z,6.32
2022-09-23T02:16:52.962Z,6.60
2022-09-23T02:19:27.292Z,6.66
2022-09-23T02:22:23.627Z,6.89
2022-09-23T02:24:51.837Z,6.88
2022-09-23T02:27:34.826Z,6.05
2022-09-23T02:30:09.598Z,6.04
2022-09-23T02:33:04.332Z,5.87
2022-09-23T02:35:49.119Z,5.72
2022-09-23T02:38:40.124Z,6.14
2022-09-23T02:41:28.295Z,6.73
2022-09-23T02:44:11.366Z,6.26
2022-09-23T02:46:39.579Z,7.07
2022-09-23T02:49:23.533Z,7.25
2022-09-23T02:51:51.713Z,7.48
2022-09-23T02:54:22.442Z,7.26
2022-09-23T02:56:50.312Z,7.25
2022-09-23T02:59:19.682Z,6.96
2022-09-23T03:02:08.043Z,6.53
2022-09-23T03:04:47.463Z,6.82
2022-09-23T03:07:19.604Z,6.35
2022-09-23T03:09:57.516Z,6.69
2022-09-23T03:12:49.493Z,6.57
2022-09-23T03:15:35.446Z,6.48
2022-09-23T03:18:31.765Z,6.18
2022-09-23T03:21:04.241Z,5.85
2022-09-23T03:23:35.890Z,5.87
2022-09-23T03:26:12.476Z,6.30
2022-09-23T03:28:43.842Z,6.66
2022-09-23T03:31:13.335Z,6.50
2022-09-23T03:33:46.184Z,5.89
2022-09-23T03:36:35.714Z,5.91
2022-09-23T03:39:08.326Z,6.35
2022-09-23T03:41:45.378Z,5.97
2022-09-23T03:44:13.009Z,5.99
2022-09-23T03:46:44.185Z,6.48
2022-09-23T03:49:24.498Z,6.51
2022-09-23T03:51:52.433Z,6.04
2022-09-23T03:54:20.503Z,6.66
2022-09-23T03:56:48.219Z,6.32
2022-09-23T03:59:16.864Z,6.00
2022-09-23T04:01:46.115Z,6.02
2022-09-23T04:04:14.184Z,6.74
2022-09-23T04:06:41.843Z,5.94
2022-09-23T04:09:09.779Z,6.40
2022-09-23T04:11:37.804Z,7.00
2022-09-23T04:14:05.809Z,7.01
2022-09-23T04:16:33.490Z,7.00
2022-09-23T04:19:01.500Z,6.93
2022-09-23T04:21:31.203Z,6.88
2022-09-23T04:23:58.974Z,6.75
2022-09-23T04:26:27.024Z,6.52
2022-09-23T04:28:55.355Z,6.80
2022-09-23T04:31:23.972Z,6.46
2022-09-23T04:33:55.223Z,6.61
2022-09-23T04:36:23.093Z,6.38
2022-09-23T04:38:51.202Z,6.20
2022-09-23T04:41:20.124Z,6.76
2022-09-23T04:43:47.775Z,6.74
2022-09-23T04:46:16.403Z,6.28
2022-09-23T04:48:44.983Z,6.66
2022-09-23T04:51:15.465Z,6.61
2022-09-23T04:53:45.034Z,6.32
2022-09-23T04:56:18.717Z,6.22
2022-09-23T04:58:46.734Z,6.12
2022-09-23T05:01:20.265Z,6.15
2022-09-23T05:03:48.284Z,6.40
2022-09-23T05:06:16.394Z,7.03
2022-09-23T05:08:52.067Z,6.73
2022-09-23T05:11:20.889Z,6.89
2022-09-23T05:13:49.752Z,7.02
2022-09-23T05:16:18.263Z,7.17
2022-09-23T05:18:46.894Z,7.17
2022-09-23T05:21:17.402Z,7.57
2022-09-23T05:23:50.343Z,8.10
2022-09-23T05:26:18.283Z,8.46
2022-09-23T05:28:45.924Z,9.03
2022-09-23T05:31:20.596Z,9.27
2022-09-23T05:33:54.348Z,9.32
2022-09-23T05:36:23.008Z,9.92
2022-09-23T05:38:51.734Z,10.29
2022-09-23T05:41:23.123Z,10.03
2022-09-23T05:43:52.513Z,10.34
2022-09-23T05:46:23.430Z,11.36
2022-09-23T05:48:51.824Z,11.27
2022-09-23T05:51:21.840Z,10.96
2022-09-23T05:53:52.796Z,11.00
2022-09-23T05:56:23.085Z,11.72
2022-09-23T05:58:51.843Z,11.95
2022-09-23T06:01:22.064Z,12.37
2022-09-23T06:03:57.347Z,12.57
2022-09-23T06:06:36.653Z,12.70
2022-09-23T06:09:06.646Z,12.91
2022-09-23T06:11:36.020Z,13.58
2022-09-23T06:14:04.245Z,13.58
2022-09-23T06:16:34.136Z,13.89
2022-09-23T06:19:06.602Z,14.05
2022-09-23T06:21:37.557Z,15.06
2022-09-23T06:24:06.422Z,15.25
2022-09-23T06:26:35.347Z,14.65
2022-09-23T06:29:08.811Z,14.69
2022-09-23T06:31:36.491Z,15.58
2022-09-23T06:34:11.817Z,15.16
2022-09-23T06:36:44.533Z,15.28
2022-09-23T06:39:16.768Z,15.66
2022-09-23T06:41:45.512Z,16.34
2022-09-23T06:44:14.487Z,16.11
2022-09-23T06:46:42.443Z,15.48
2022-09-23T06:49:10.795Z,15.90
2022-09-23T06:51:40.369Z,16.18
2022-09-23T06:54:08.469Z,16.49
2022-09-23T06:56:39.079Z,15.79
2022-09-23T06:59:10.926Z,15.58
2022-09-23T07:01:39.296Z,15.52
2022-09-23T07:04:07.960Z,16.04
2022-09-23T07:06:36.257Z,16.40
2022-09-23T07:09:05.467Z,16.46
2022-09-23T07:11:33.718Z,17.28
2022-09-23T07:14:01.825Z,15.91
2022-09-23T07:16:29.788Z,17.85
2022-09-23T07:18:57.947Z,16.95
2022-09-23T07:21:26.156Z,17.77
2022-09-23T07:23:55.437Z,18.55
2022-09-23T07:26:24.167Z,18.15
2022-09-23T07:28:56.046Z,18.57
2022-09-23T07:31:35.484Z,18.36
2022-09-23T07:34:07.939Z,19.00
2022-09-23T07:36:37.623Z,18.29
2022-09-23T07:39:05.437Z,18.57
2022-09-23T07:41:34.665Z,18.24
2022-09-23T07:44:03.316Z,19.34
2022-09-23T07:46:33.575Z,17.56
2022-09-23T07:49:03.164Z,18.47
2022-09-23T07:51:36.305Z,18.71
2022-09-23T07:54:08.002Z,20.05
2022-09-23T07:56:37.240Z,20.17
2022-09-23T07:59:09.028Z,20.07
2022-09-23T08:01:39.989Z,20.46
2022-09-23T08:04:12.676Z,20.42
2022-09-23T08:06:48.658Z,19.06
2022-09-23T08:09:18.764Z,20.00
2022-09-23T08:11:46.705Z,20.52
2022-09-23T08:14:15.567Z,20.06
2022-09-23T08:16:45.477Z,20.71
2022-09-23T08:19:13.990Z,19.66
2022-09-23T08:21:42.450Z,19.20
2022-09-23T08:24:14.837Z,20.82
2022-09-23T08:26:43.604Z,21.04
2022-09-23T08:29:18.985Z,20.98
2022-09-23T08:31:46.967Z,20.08
2022-09-23T08:34:15.500Z,21.38
2022-09-23T08:36:43.327Z,21.84
2022-09-23T08:39:17.819Z,19.94
2022-09-23T08:42:04.104Z,20.67
2022-09-23T08:44:37.754Z,20.83
2022-09-23T08:47:43.903Z,20.02
2022-09-23T08:50:18.624Z,18.37
2022-09-23T08:52:57.204Z,19.77
2022-09-23T08:55:35.306Z,22.00
2022-09-23T08:58:31.319Z,21.23
2022-09-23T09:01:15.875Z,20.10
2022-09-23T09:04:09.440Z,19.58
2022-09-23T09:06:53.038Z,19.73
2022-09-23T09:09:53.350Z,19.67
2022-09-23T09:12:27.025Z,22.00
2022-09-23T09:14:57.663Z,22.41
2022-09-23T09:17:50.915Z,21.38
2022-09-23T09:20:23.408Z,21.06
2022-09-23T09:22:57.896Z,21.35
2022-09-23T09:25:44.635Z,19.69
2022-09-23T09:28:36.035Z,20.64
2022-09-23T09:31:28.466Z,19.74
2022-09-23T09:34:33.936Z,22.26
2022-09-23T09:37:07.724Z,22.27
2022-09-23T09:39:37.073Z,22.32
2022-09-23T09:42:07.694Z,21.39
2022-09-23T09:44:50.444Z,20.72
2022-09-23T09:47:46.979Z,22.55
2022-09-23T09:50:22.259Z,22.69
2022-09-23T09:52:51.318Z,23.43
2022-09-23T09:55:28.988Z,22.43
2022-09-23T09:58:04.299Z,22.22
2022-09-23T10:00:39.231Z,22.59
2022-09-23T10:03:33.980Z,24.02
2022-09-23T10:06:17.530Z,22.20
2022-09-23T10:09:09.524Z,22.22
2022-09-23T10:11:38.467Z,22.81
2022-09-23T10:14:17.916Z,23.45
2022-09-23T10:16:48.919Z,22.73
2022-09-23T10:19:26.584Z,21.63
2022-09-23T10:22:00.370Z,21.75
2022-09-23T10:24:31.159Z,20.84
2022-09-23T10:27:09.704Z,21.23
2022-09-23T10:29:50.454Z,21.14
2022-09-23T10:32:30.455Z,21.70
2022-09-23T10:35:01.765Z,22.38
2022-09-23T10:37:44.775Z,20.22
2022-09-23T10:41:02.461Z,19.77
2022-09-23T10:43:51.800Z,19.65
2022-09-23T10:46:41.171Z,19.68
2022-09-23T10:49:46.016Z,19.60
2022-09-23T10:52:23.354Z,21.23
2022-09-23T10:55:28.539Z,20.42
2022-09-23T10:58:24.907Z,20.73
2022-09-23T11:01:05.508Z,19.22
2022-09-23T11:04:16.640Z,18.46
2022-09-23T11:06:50.673Z,19.48
2022-09-23T11:09:40.688Z,19.89
2022-09-23T11:12:14.988Z,19.49
2022-09-23T11:15:07.744Z,19.83
2022-09-23T11:18:02.956Z,20.73
2022-09-23T11:20:40.997Z,20.39
2022-09-23T11:23:27.391Z,21.14
2022-09-23T11:26:22.796Z,20.67
2022-09-23T11:29:17.186Z,21.28
2022-09-23T11:32:27.709Z,21.28
2022-09-23T11:35:20.937Z,21.53
2022-09-23T11:37:53.148Z,21.13
2022-09-23T11:40:30.685Z,21.19
2022-09-23T11:43:24.092Z,22.80
2022-09-23T11:46:01.011Z,22.27
2022-09-23T11:48:35.754Z,22.48
2022-09-23T11:51:07.094Z,21.59
2022-09-23T11:53:43.391Z,22.87
2022-09-23T11:56:49.634Z,22.55
2022-09-23T12:02:28.250Z,20.96
2022-09-23T12:05:09.154Z,21.76
2022-09-23T12:08:03.777Z,22.05
2022-09-23T12:10:46.428Z,22.20
2022-09-23T12:13:21.369Z,22.00
2022-09-23T12:15:52.489Z,22.03
2022-09-23T12:18:25.947Z,21.69
2022-09-23T12:21:02.550Z,22.32
2022-09-23T12:23:51.450Z,20.73
2022-09-23T12:26:22.324Z,21.91
2022-09-23T12:28:53.083Z,21.57
2022-09-23T12:31:30.771Z,20.79
2022-09-23T12:34:00.784Z,21.45
2022-09-23T12:36:36.020Z,21.63
2022-09-23T12:39:18.075Z,20.75
2022-09-23T12:41:51.652Z,21.00
2022-09-23T12:44:41.522Z,21.82
2022-09-23T12:47:21.194Z,21.91
2022-09-23T12:49:51.041Z,21.47
2022-09-23T12:52:19.169Z,21.90
2022-09-23T12:54:48.732Z,21.54
2022-09-23T12:57:35.062Z,21.10
2022-09-23T13:00:13.205Z,22.08
2022-09-23T13:02:43.871Z,22.01
2022-09-23T13:05:37.972Z,21.56
2022-09-23T13:08:24.942Z,21.15
2022-09-23T13:10:56.123Z,20.91
2022-09-23T13:13:42.134Z,21.33
2022-09-23T13:16:26.943Z,21.12
2022-09-23T13:19:00.264Z,20.33
2022-09-23T13:21:43.737Z,20.73
2022-09-23T13:24:23.299Z,21.04
2022-09-23T13:26:53.748Z,20.98
2022-09-23T13:29:33.476Z,19.88
2022-09-23T13:32:03.511Z,20.60
2022-09-23T13:34:35.357Z,19.56
2022-09-23T13:37:23.536Z,19.12
2022-09-23T13:39:51.457Z,19.05
2022-09-23T13:42:29.887Z,18.48
2022-09-23T13:44:59.156Z,18.94
2022-09-23T13:47:28.840Z,19.66
2022-09-23T13:49:57.140Z,20.03
2022-09-23T13:52:31.966Z,19.77
2022-09-23T13:55:00.280Z,20.54
2022-09-23T13:57:37.159Z,19.86
2022-09-23T14:00:18.648Z,19.00
2022-09-23T14:02:50.327Z,19.17
2022-09-23T14:05:27.408Z,19.09
2022-09-23T14:07:56.219Z,19.40
2022-09-23T14:10:26.009Z,19.10
2022-09-23T14:12:55.469Z,19.34
2022-09-23T14:15:23.680Z,18.49
2022-09-23T14:18:01.711Z,18.50
2022-09-23T14:20:30.545Z,18.82
2022-09-23T14:23:11.994Z,18.62
2022-09-23T14:25:41.152Z,18.37
2022-09-23T14:28:14.442Z,18.26
2022-09-23T14:30:44.813Z,18.28
2022-09-23T14:33:22.454Z,17.96
2022-09-23T14:35:56.862Z,18.32
2022-09-23T14:38:45.605Z,18.15
2022-09-23T14:41:22.289Z,18.31
2022-09-23T14:43:57.327Z,19.07
2022-09-23T14:46:27.815Z,19.42
2022-09-23T14:49:07.840Z,19.40
2022-09-23T14:51:44.043Z,19.84
2022-09-23T14:54:39.102Z,20.36
2022-09-23T14:57:26.816Z,20.05
2022-09-23T15:00:09.854Z,19.56
2022-09-23T15:02:39.996Z,19.44
2022-09-23T15:05:18.536Z,19.83
2022-09-23T15:07:52.084Z,19.98
2022-09-23T15:10:31.938Z,19.75
2022-09-23T15:13:20.238Z,18.97
2022-09-23T15:15:48.140Z,18.97
2022-09-23T15:18:20.714Z,18.73
2022-09-23T15:20:53.429Z,18.51
2022-09-23T15:23:49.167Z,17.99
2022-09-23T15:26:41.165Z,18.20
2022-09-23T15:29:10.015Z,17.25
2022-09-23T15:31:37.900Z,16.90
2022-09-23T15:34:05.991Z,16.44
2022-09-23T15:36:35.053Z,16.39
2022-09-23T15:39:05.740Z,16.31
2022-09-23T15:41:33.802Z,17.42
2022-09-23T15:44:05.673Z,17.41
2022-09-23T15:46:34.128Z,16.61
2022-09-23T15:49:09.501Z,16.75
2022-09-23T15:51:38.741Z,16.16
2022-09-23T15:54:12.584Z,16.77
2022-09-23T15:56:40.462Z,16.48
2022-09-23T15:59:08.577Z,15.08
2022-09-23T16:01:36.907Z,14.97
2022-09-23T16:04:05.373Z,14.58
2022-09-23T16:06:36.203Z,14.70
2022-09-23T16:09:03.981Z,15.82
2022-09-23T16:11:33.013Z,15.38
2022-09-23T16:14:00.983Z,15.49
2022-09-23T16:16:29.506Z,15.56
2022-09-23T16:18:57.594Z,15.83
2022-09-23T16:21:26.862Z,15.93
2022-09-23T16:23:57.411Z,15.92
2022-09-23T16:26:36.014Z,15.73
2022-09-23T16:29:03.807Z,15.48
2022-09-23T16:31:31.987Z,15.25
2022-09-23T16:34:02.615Z,14.71
2022-09-23T16:36:32.042Z,14.59
2022-09-23T16:39:02.165Z,14.38
2022-09-23T16:41:31.694Z,14.06
2022-09-23T16:44:01.086Z,13.79
2022-09-23T16:46:29.519Z,13.57
2022-09-23T16:48:58.365Z,13.32
2022-09-23T16:51:29.236Z,13.06
2022-09-23T16:53:58.845Z,12.81
2022-09-23T16:56:29.322Z,12.49
2022-09-23T16:58:57.600Z,12.52
2022-09-23T17:01:46.602Z,11.58
2022-09-23T17:04:16.459Z,12.06
2022-09-23T17:06:46.496Z,12.42
2022-09-23T17:09:14.724Z,12.25
2022-09-23T17:11:44.074Z,11.95
2022-09-23T17:14:11.874Z,11.72
2022-09-23T17:16:39.876Z,11.52
2022-09-23T17:19:08.886Z,11.32
2022-09-23T17:21:37.001Z,11.53
2022-09-23T17:24:05.500Z,11.36
2022-09-23T17:26:33.657Z,11.13
2022-09-23T17:29:02.210Z,10.94
2022-09-23T17:31:30.763Z,10.71
2022-09-23T17:33:58.605Z,10.55
2022-09-23T17:36:28.156Z,10.51
2022-09-23T17:38:56.268Z,10.41
2022-09-23T17:41:24.395Z,10.34
2022-09-23T17:43:56.883Z,10.38
2022-09-23T17:46:24.888Z,10.41
2022-09-23T17:48:55.811Z,10.47
2022-09-23T17:51:25.533Z,10.08
2022-09-23T17:53:53.314Z,9.89
2022-09-23T17:56:25.816Z,10.34
2022-09-23T17:58:54.107Z,10.00
2022-09-23T18:01:24.185Z,10.23
2022-09-23T18:04:00.306Z,10.36
2022-09-23T18:06:31.858Z,9.58
2022-09-23T18:09:01.747Z,9.83
2022-09-23T18:11:31.707Z,10.00
2022-09-23T18:14:14.233Z,10.14
2022-09-23T18:16:44.346Z,9.94
2022-09-23T18:19:15.091Z,9.84
2022-09-23T18:21:46.255Z,9.85
2022-09-23T18:27:02.146Z,9.33
2022-09-23T18:29:30.637Z,9.70
2022-09-23T18:31:59.503Z,9.67
2022-09-23T18:34:28.778Z,9.54
2022-09-23T18:36:56.880Z,9.32
2022-09-23T18:39:24.670Z,9.40
2022-09-23T18:41:52.433Z,8.65
2022-09-23T18:44:20.525Z,8.43
2022-09-23T18:46:48.257Z,9.09
2022-09-23T18:49:34.279Z,8.95
2022-09-23T18:52:02.707Z,8.58
2022-09-23T18:54:30.557Z,8.18
2022-09-23T18:56:59.480Z,8.91
2022-09-23T18:59:29.724Z,9.15
2022-09-23T19:01:57.944Z,8.99
2022-09-23T19:04:26.825Z,9.11
2022-09-23T19:06:56.826Z,8.74
2022-09-23T19:09:25.084Z,8.70
2022-09-23T19:11:53.006Z,8.52
2022-09-23T19:14:21.510Z,8.63
2022-09-23T19:16:49.456Z,9.02
2022-09-23T19:19:17.272Z,9.07
2022-09-23T19:21:45.376Z,8.79
2022-09-23T19:24:16.255Z,8.86
2022-09-23T19:26:44.399Z,8.76
2022-09-23T19:29:19.717Z,8.36
2022-09-23T19:31:48.548Z,8.62
2022-09-23T19:34:23.993Z,8.73
2022-09-23T19:36:52.979Z,8.71
2022-09-23T19:39:26.621Z,8.43
2022-09-23T19:41:56.065Z,8.56
2022-09-23T19:44:25.275Z,8.58
2022-09-23T19:46:56.411Z,8.31
2022-09-23T19:49:25.640Z,8.30
2022-09-23T19:51:56.237Z,8.33
2022-09-23T19:54:26.730Z,8.50
2022-09-23T19:56:54.952Z,8.49
2022-09-23T19:59:22.645Z,8.56
2022-09-23T20:01:50.586Z,8.43
2022-09-23T20:04:18.850Z,8.29
2022-09-23T20:06:50.635Z,8.25
2022-09-23T20:09:20.944Z,8.08
2022-09-23T20:11:56.783Z,8.11
2022-09-23T20:14:29.767Z,7.99
2022-09-23T20:17:01.615Z,7.93
2022-09-23T20:19:29.795Z,7.89
2022-09-23T20:22:16.085Z,7.37
2022-09-23T20:24:44.096Z,7.74
2022-09-23T20:27:11.895Z,7.90
2022-09-23T20:29:39.494Z,7.98
2022-09-23T20:32:07.496Z,8.21
2022-09-23T20:34:35.365Z,7.74
2022-09-23T20:37:04.484Z,7.96
2022-09-23T20:39:32.514Z,7.96
2022-09-23T20:42:00.602Z,7.63
2022-09-23T20:44:28.554Z,7.29
2022-09-23T20:46:56.569Z,6.72
2022-09-23T20:49:24.366Z,7.83
2022-09-23T20:51:51.974Z,7.84
2022-09-23T20:54:20.037Z,7.55
2022-09-23T20:56:47.921Z,7.72
2022-09-23T20:59:17.965Z,6.99
2022-09-23T21:01:47.830Z,6.87
2022-09-23T21:04:15.652Z,6.88
2022-09-23T21:06:43.444Z,6.81
2022-09-23T21:09:11.445Z,7.30
2022-09-23T21:11:39.083Z,7.71
2022-09-23T21:14:06.846Z,7.79
2022-09-23T21:16:35.654Z,7.56
2022-09-23T21:19:04.453Z,7.39
2022-09-23T21:21:32.594Z,7.31
2022-09-23T21:24:23.798Z,6.36
2022-09-23T21:26:50.590Z,6.70
2022-09-23T21:29:18.543Z,6.90
2022-09-23T21:31:49.170Z,7.16
2022-09-23T21:34:16.815Z,7.57
2022-09-23T21:36:44.964Z,7.31
2022-09-23T21:39:12.874Z,7.30
2022-09-23T21:41:40.535Z,7.42
2022-09-23T21:44:08.733Z,7.51
2022-09-23T21:46:37.124Z,6.69
2022-09-23T21:49:05.344Z,7.33
2022-09-23T21:51:40.853Z,6.58
2022-09-23T21:54:15.755Z,6.14
2022-09-23T21:56:44.338Z,7.06
2022-09-23T21:59:12.089Z,7.32
2022-09-23T22:01:43.725Z,7.16
2022-09-23T22:04:17.616Z,7.13
2022-09-23T22:06:46.445Z,6.34
2022-09-23T22:09:17.077Z,6.84
2022-09-23T22:12:04.042Z,7.32
2022-09-23T22:14:32.196Z,7.33
2022-09-23T22:17:02.862Z,7.23
2022-09-23T22:19:33.313Z,7.15
2022-09-23T22:22:12.975Z,6.96
2022-09-23T22:24:41.797Z,7.00
2022-09-23T22:27:11.293Z,7.19
2022-09-23T22:29:57.644Z,7.16
2022-09-23T22:32:40.837Z,7.25
2022-09-23T22:35:11.073Z,7.38
2022-09-23T22:37:39.390Z,7.17
2022-09-23T22:40:10.561Z,7.03
2022-09-23T22:42:40.629Z,7.42
2022-09-23T22:45:10.485Z,7.30
2022-09-23T22:47:39.761Z,7.11
2022-09-23T22:50:09.228Z,6.49
2022-09-23T22:52:38.020Z,6.94
2022-09-23T22:55:08.271Z,6.88
2022-09-23T22:57:36.862Z,6.18
2022-09-23T23:00:06.074Z,6.39
2022-09-23T23:02:33.774Z,6.38
2022-09-23T23:05:02.392Z,6.64
2022-09-23T23:07:30.424Z,7.03
2022-09-23T23:09:58.294Z,6.76
2022-09-23T23:12:25.926Z,6.32
2022-09-23T23:14:53.886Z,6.91
2022-09-23T23:17:21.953Z,6.47
2022-09-23T23:19:51.005Z,6.83
2022-09-23T23:22:19.004Z,6.89
2022-09-23T23:24:46.836Z,6.87
2022-09-23T23:27:14.518Z,6.70
2022-09-23T23:29:42.496Z,6.76
2022-09-23T23:32:10.133Z,6.59
2022-09-23T23:34:37.870Z,5.57
2022-09-23T23:37:05.866Z,6.33
2022-09-23T23:39:33.989Z,5.42
2022-09-23T23:42:01.591Z,5.80
2022-09-23T23:44:31.244Z,6.58
2022-09-23T23:46:58.977Z,6.79
2022-09-23T23:49:26.564Z,6.71
2022-09-23T23:51:54.627Z,6.82
2022-09-23T23:54:22.314Z,6.62
2022-09-23T23:56:50.205Z,6.52
2022-09-23T23:59:20.116Z,6.62
